sensor_id;sensor_type;location;lat;lon;timestamp;P1;durP1;ratioP1;P2;durP2;ratioP2
37973;SDS011;23796;51.458;7.000;2023-01-29T00:02:13;27.58;;;22.10;;
37973;SDS011;23796;51.458;7.000;2023-01-29T00:04:38;30.45;;;22.98;;
37973;SDS011;23796;51.458;7.000;2023-01-29T00:07:04;28.95;;;22.13;;
37973;SDS011;23796;51.458;7.000;2023-01-29T00:09:35;32.70;;;24.48;;
37973;SDS011;23796;51.458;7.000;2023-01-29T00:12:02;28.98;;;22.77;;
37973;SDS011;23796;51.458;7.000;2023-01-29T00:14:28;29.45;;;23.55;;
37973;SDS011;23796;51.458;7.000;2023-01-29T00:16:54;27.92;;;22.30;;
37973;SDS011;23796;51.458;7.000;2023-01-29T00:19:22;29.40;;;23.00;;
37973;SDS011;23796;51.458;7.000;2023-01-29T00:21:50;31.55;;;25.48;;
37973;SDS011;23796;51.458;7.000;2023-01-29T00:24:15;30.27;;;23.60;;
37973;SDS011;23796;51.458;7.000;2023-01-29T00:26:41;31.65;;;24.27;;
37973;SDS011;23796;51.458;7.000;2023-01-29T00:29:07;31.70;;;24.20;;
37973;SDS011;23796;51.458;7.000;2023-01-29T00:31:35;31.52;;;24.45;;
37973;SDS011;23796;51.458;7.000;2023-01-29T00:34:00;35.03;;;25.38;;
37973;SDS011;23796;51.458;7.000;2023-01-29T00:36:28;33.15;;;24.70;;
37973;SDS011;23796;51.458;7.000;2023-01-29T00:38:57;34.22;;;25.52;;
37973;SDS011;23796;51.458;7.000;2023-01-29T00:41:28;34.17;;;25.98;;
37973;SDS011;23796;51.458;7.000;2023-01-29T00:44:13;33.33;;;24.90;;
37973;SDS011;23796;51.458;7.000;2023-01-29T00:46:57;33.08;;;24.33;;
37973;SDS011;23796;51.458;7.000;2023-01-29T00:49:23;30.27;;;23.60;;
37973;SDS011;23796;51.458;7.000;2023-01-29T00:51:49;30.95;;;24.05;;
37973;SDS011;23796;51.458;7.000;2023-01-29T00:54:34;30.00;;;23.73;;
37973;SDS011;23796;51.458;7.000;2023-01-29T00:57:00;33.17;;;24.00;;
37973;SDS011;23796;51.458;7.000;2023-01-29T00:59:27;32.03;;;24.23;;
37973;SDS011;23796;51.458;7.000;2023-01-29T01:01:53;29.65;;;22.73;;
37973;SDS011;23796;51.458;7.000;2023-01-29T01:04:37;30.63;;;22.98;;
37973;SDS011;23796;51.458;7.000;2023-01-29T01:07:05;33.95;;;24.80;;
37973;SDS011;23796;51.458;7.000;2023-01-29T01:09:33;35.83;;;24.63;;
37973;SDS011;23796;51.458;7.000;2023-01-29T01:12:18;31.17;;;23.92;;
37973;SDS011;23796;51.458;7.000;2023-01-29T01:14:44;31.00;;;24.00;;
37973;SDS011;23796;51.458;7.000;2023-01-29T01:17:10;33.88;;;25.45;;
37973;SDS011;23796;51.458;7.000;2023-01-29T01:19:39;33.33;;;25.20;;
37973;SDS011;23796;51.458;7.000;2023-01-29T01:22:05;32.05;;;24.33;;
37973;SDS011;23796;51.458;7.000;2023-01-29T01:24:30;33.30;;;25.13;;
37973;SDS011;23796;51.458;7.000;2023-01-29T01:26:56;32.58;;;24.33;;
37973;SDS011;23796;51.458;7.000;2023-01-29T01:29:24;33.17;;;23.48;;
37973;SDS011;23796;51.458;7.000;2023-01-29T01:31:51;30.75;;;23.65;;
37973;SDS011;23796;51.458;7.000;2023-01-29T01:34:19;29.92;;;23.55;;
37973;SDS011;23796;51.458;7.000;2023-01-29T01:36:46;29.15;;;22.83;;
37973;SDS011;23796;51.458;7.000;2023-01-29T01:39:12;30.27;;;23.83;;
37973;SDS011;23796;51.458;7.000;2023-01-29T01:41:40;32.13;;;24.45;;
37973;SDS011;23796;51.458;7.000;2023-01-29T01:44:05;32.47;;;24.85;;
37973;SDS011;23796;51.458;7.000;2023-01-29T01:46:35;32.33;;;25.15;;
37973;SDS011;23796;51.458;7.000;2023-01-29T01:49:03;31.80;;;23.40;;
37973;SDS011;23796;51.458;7.000;2023-01-29T01:51:30;32.78;;;24.85;;
37973;SDS011;23796;51.458;7.000;2023-01-29T01:54:09;33.17;;;25.58;;
37973;SDS011;23796;51.458;7.000;2023-01-29T01:56:42;25.67;;;19.02;;
37973;SDS011;23796;51.458;7.000;2023-01-29T01:59:15;32.20;;;23.60;;
37973;SDS011;23796;51.458;7.000;2023-01-29T02:01:43;32.40;;;24.55;;
37973;SDS011;23796;51.458;7.000;2023-01-29T02:04:21;31.98;;;24.52;;
37973;SDS011;23796;51.458;7.000;2023-01-29T02:07:10;32.00;;;25.60;;
37973;SDS011;23796;51.458;7.000;2023-01-29T02:12:40;34.28;;;25.40;;
37973;SDS011;23796;51.458;7.000;2023-01-29T02:15:08;35.08;;;25.17;;
37973;SDS011;23796;51.458;7.000;2023-01-29T02:17:34;35.22;;;27.00;;
37973;SDS011;23796;51.458;7.000;2023-01-29T02:36:30;40.60;;;28.88;;
37973;SDS011;23796;51.458;7.000;2023-01-29T02:39:37;39.42;;;26.73;;
37973;SDS011;23796;51.458;7.000;2023-01-29T02:42:23;37.58;;;28.30;;
37973;SDS011;23796;51.458;7.000;2023-01-29T02:44:54;38.53;;;27.70;;
37973;SDS011;23796;51.458;7.000;2023-01-29T02:52:57;34.00;;;26.20;;
37973;SDS011;23796;51.458;7.000;2023-01-29T03:00:46;30.05;;;22.88;;
37973;SDS011;23796;51.458;7.000;2023-01-29T03:03:17;33.20;;;24.35;;
37973;SDS011;23796;51.458;7.000;2023-01-29T03:06:10;31.13;;;24.08;;
37973;SDS011;23796;51.458;7.000;2023-01-29T03:08:53;30.67;;;22.40;;
37973;SDS011;23796;51.458;7.000;2023-01-29T03:11:26;30.10;;;22.42;;
37973;SDS011;23796;51.458;7.000;2023-01-29T03:13:59;28.95;;;21.77;;
37973;SDS011;23796;51.458;7.000;2023-01-29T03:19:19;29.05;;;21.65;;
37973;SDS011;23796;51.458;7.000;2023-01-29T03:21:56;30.38;;;22.40;;
37973;SDS011;23796;51.458;7.000;2023-01-29T03:27:33;30.95;;;22.90;;
37973;SDS011;23796;51.458;7.000;2023-01-29T03:30:27;27.45;;;20.73;;
37973;SDS011;23796;51.458;7.000;2023-01-29T03:33:16;27.60;;;21.15;;
37973;SDS011;23796;51.458;7.000;2023-01-29T03:35:45;28.52;;;21.65;;
37973;SDS011;23796;51.458;7.000;2023-01-29T03:38:19;30.58;;;21.58;;
37973;SDS011;23796;51.458;7.000;2023-01-29T03:40:50;27.73;;;20.50;;
37973;SDS011;23796;51.458;7.000;2023-01-29T03:43:29;28.85;;;21.35;;
37973;SDS011;23796;51.458;7.000;2023-01-29T03:51:59;28.20;;;21.02;;
37973;SDS011;23796;51.458;7.000;2023-01-29T03:57:27;28.50;;;21.48;;
37973;SDS011;23796;51.458;7.000;2023-01-29T04:00:06;28.65;;;21.80;;
37973;SDS011;23796;51.458;7.000;2023-01-29T04:03:10;29.30;;;21.58;;
37973;SDS011;23796;51.458;7.000;2023-01-29T04:05:52;29.83;;;21.35;;
37973;SDS011;23796;51.458;7.000;2023-01-29T04:08:29;30.92;;;23.00;;
37973;SDS011;23796;51.458;7.000;2023-01-29T04:10:58;30.25;;;22.02;;
37973;SDS011;23796;51.458;7.000;2023-01-29T04:13:27;30.33;;;21.15;;
37973;SDS011;23796;51.458;7.000;2023-01-29T04:15:57;28.48;;;21.83;;
37973;SDS011;23796;51.458;7.000;2023-01-29T04:18:26;30.35;;;21.90;;
37973;SDS011;23796;51.458;7.000;2023-01-29T04:20:52;30.13;;;22.23;;
37973;SDS011;23796;51.458;7.000;2023-01-29T04:23:22;29.80;;;22.23;;
37973;SDS011;23796;51.458;7.000;2023-01-29T04:31:31;26.67;;;20.23;;
37973;SDS011;23796;51.458;7.000;2023-01-29T04:37:22;29.38;;;21.38;;
37973;SDS011;23796;51.458;7.000;2023-01-29T04:40:10;26.67;;;21.17;;
37973;SDS011;23796;51.458;7.000;2023-01-29T04:42:56;28.42;;;22.02;;
37973;SDS011;23796;51.458;7.000;2023-01-29T04:48:08;27.60;;;21.48;;
37973;SDS011;23796;51.458;7.000;2023-01-29T04:50:46;31.73;;;23.20;;
37973;SDS011;23796;51.458;7.000;2023-01-29T04:58:58;29.20;;;21.42;;
37973;SDS011;23796;51.458;7.000;2023-01-29T05:01:29;30.95;;;22.17;;
37973;SDS011;23796;51.458;7.000;2023-01-29T05:03:59;28.42;;;20.92;;
37973;SDS011;23796;51.458;7.000;2023-01-29T05:06:28;28.77;;;21.20;;
37973;SDS011;23796;51.458;7.000;2023-01-29T05:08:55;28.83;;;21.85;;
37973;SDS011;23796;51.458;7.000;2023-01-29T05:11:24;27.60;;;21.02;;
37973;SDS011;23796;51.458;7.000;2023-01-29T05:13:50;26.60;;;21.10;;
37973;SDS011;23796;51.458;7.000;2023-01-29T05:18:49;26.30;;;19.88;;
37973;SDS011;23796;51.458;7.000;2023-01-29T05:21:15;28.13;;;21.25;;
37973;SDS011;23796;51.458;7.000;2023-01-29T05:23:42;27.77;;;21.30;;
37973;SDS011;23796;51.458;7.000;2023-01-29T05:26:21;27.15;;;20.95;;
37973;SDS011;23796;51.458;7.000;2023-01-29T05:29:05;28.13;;;22.00;;
37973;SDS011;23796;51.458;7.000;2023-01-29T05:31:31;27.40;;;20.15;;
37973;SDS011;23796;51.458;7.000;2023-01-29T05:33:56;28.08;;;21.77;;
37973;SDS011;23796;51.458;7.000;2023-01-29T05:36:24;29.95;;;22.40;;
37973;SDS011;23796;51.458;7.000;2023-01-29T05:38:51;28.00;;;21.98;;
37973;SDS011;23796;51.458;7.000;2023-01-29T05:41:16;29.40;;;22.52;;
37973;SDS011;23796;51.458;7.000;2023-01-29T05:43:45;32.00;;;23.67;;
37973;SDS011;23796;51.458;7.000;2023-01-29T05:46:11;29.50;;;22.38;;
37973;SDS011;23796;51.458;7.000;2023-01-29T05:48:36;27.65;;;21.40;;
37973;SDS011;23796;51.458;7.000;2023-01-29T05:51:02;27.40;;;21.33;;
37973;SDS011;23796;51.458;7.000;2023-01-29T05:53:31;29.35;;;21.58;;
37973;SDS011;23796;51.458;7.000;2023-01-29T05:56:02;33.60;;;21.50;;
37973;SDS011;23796;51.458;7.000;2023-01-29T05:58:29;28.17;;;21.65;;
37973;SDS011;23796;51.458;7.000;2023-01-29T06:00:56;28.20;;;21.98;;
37973;SDS011;23796;51.458;7.000;2023-01-29T06:03:22;27.85;;;21.45;;
37973;SDS011;23796;51.458;7.000;2023-01-29T06:05:49;30.45;;;23.02;;
37973;SDS011;23796;51.458;7.000;2023-01-29T06:08:15;28.63;;;22.35;;
37973;SDS011;23796;51.458;7.000;2023-01-29T06:10:43;28.45;;;21.35;;
37973;SDS011;23796;51.458;7.000;2023-01-29T06:13:08;27.20;;;21.33;;
37973;SDS011;23796;51.458;7.000;2023-01-29T06:15:34;27.92;;;21.80;;
37973;SDS011;23796;51.458;7.000;2023-01-29T06:18:02;28.08;;;22.02;;
37973;SDS011;23796;51.458;7.000;2023-01-29T06:20:31;29.23;;;22.70;;
37973;SDS011;23796;51.458;7.000;2023-01-29T06:22:58;28.80;;;22.02;;
37973;SDS011;23796;51.458;7.000;2023-01-29T06:25:24;28.63;;;21.02;;
37973;SDS011;23796;51.458;7.000;2023-01-29T06:27:50;28.67;;;21.63;;
37973;SDS011;23796;51.458;7.000;2023-01-29T06:30:18;30.33;;;23.17;;
37973;SDS011;23796;51.458;7.000;2023-01-29T06:32:44;28.25;;;21.92;;
37973;SDS011;23796;51.458;7.000;2023-01-29T06:35:09;27.08;;;20.60;;
37973;SDS011;23796;51.458;7.000;2023-01-29T06:37:35;27.05;;;21.33;;
37973;SDS011;23796;51.458;7.000;2023-01-29T06:40:01;31.05;;;22.35;;
37973;SDS011;23796;51.458;7.000;2023-01-29T06:42:29;30.05;;;22.27;;
37973;SDS011;23796;51.458;7.000;2023-01-29T06:44:58;29.20;;;22.92;;
37973;SDS011;23796;51.458;7.000;2023-01-29T06:47:26;31.08;;;21.80;;
37973;SDS011;23796;51.458;7.000;2023-01-29T06:49:52;30.00;;;22.50;;
37973;SDS011;23796;51.458;7.000;2023-01-29T06:52:17;29.60;;;22.67;;
37973;SDS011;23796;51.458;7.000;2023-01-29T06:54:43;28.55;;;21.60;;
37973;SDS011;23796;51.458;7.000;2023-01-29T06:57:09;30.80;;;22.15;;
37973;SDS011;23796;51.458;7.000;2023-01-29T06:59:34;30.17;;;21.92;;
37973;SDS011;23796;51.458;7.000;2023-01-29T07:02:02;29.70;;;21.85;;
37973;SDS011;23796;51.458;7.000;2023-01-29T07:04:28;29.40;;;22.27;;
37973;SDS011;23796;51.458;7.000;2023-01-29T07:06:54;30.25;;;22.20;;
37973;SDS011;23796;51.458;7.000;2023-01-29T07:09:19;30.08;;;22.70;;
37973;SDS011;23796;51.458;7.000;2023-01-29T07:11:47;31.80;;;22.92;;
37973;SDS011;23796;51.458;7.000;2023-01-29T07:14:13;31.38;;;23.48;;
37973;SDS011;23796;51.458;7.000;2023-01-29T07:16:41;27.50;;;21.33;;
37973;SDS011;23796;51.458;7.000;2023-01-29T07:19:07;30.80;;;23.15;;
37973;SDS011;23796;51.458;7.000;2023-01-29T07:21:35;30.55;;;22.70;;
37973;SDS011;23796;51.458;7.000;2023-01-29T07:24:01;29.15;;;22.17;;
37973;SDS011;23796;51.458;7.000;2023-01-29T07:26:27;30.45;;;23.10;;
37973;SDS011;23796;51.458;7.000;2023-01-29T07:28:52;29.85;;;22.52;;
37973;SDS011;23796;51.458;7.000;2023-01-29T07:31:18;31.50;;;23.50;;
37973;SDS011;23796;51.458;7.000;2023-01-29T07:33:44;29.77;;;21.90;;
37973;SDS011;23796;51.458;7.000;2023-01-29T07:36:12;32.88;;;23.25;;
37973;SDS011;23796;51.458;7.000;2023-01-29T07:38:38;32.42;;;23.65;;
37973;SDS011;23796;51.458;7.000;2023-01-29T07:41:04;30.70;;;22.58;;
37973;SDS011;23796;51.458;7.000;2023-01-29T07:43:30;30.05;;;22.70;;
37973;SDS011;23796;51.458;7.000;2023-01-29T07:45:59;30.27;;;22.38;;
37973;SDS011;23796;51.458;7.000;2023-01-29T07:48:27;29.40;;;22.55;;
37973;SDS011;23796;51.458;7.000;2023-01-29T07:50:53;32.03;;;24.15;;
37973;SDS011;23796;51.458;7.000;2023-01-29T07:53:23;30.33;;;21.17;;
37973;SDS011;23796;51.458;7.000;2023-01-29T07:55:49;31.95;;;23.25;;
37973;SDS011;23796;51.458;7.000;2023-01-29T07:58:15;30.02;;;23.63;;
37973;SDS011;23796;51.458;7.000;2023-01-29T08:00:43;31.08;;;23.35;;
37973;SDS011;23796;51.458;7.000;2023-01-29T08:03:12;31.23;;;23.52;;
37973;SDS011;23796;51.458;7.000;2023-01-29T08:05:40;31.17;;;23.08;;
37973;SDS011;23796;51.458;7.000;2023-01-29T08:08:06;28.95;;;22.02;;
37973;SDS011;23796;51.458;7.000;2023-01-29T08:10:32;30.63;;;23.58;;
37973;SDS011;23796;51.458;7.000;2023-01-29T08:12:58;29.02;;;22.17;;
37973;SDS011;23796;51.458;7.000;2023-01-29T08:15:27;29.50;;;22.45;;
37973;SDS011;23796;51.458;7.000;2023-01-29T08:17:55;28.73;;;22.38;;
37973;SDS011;23796;51.458;7.000;2023-01-29T08:20:23;31.33;;;23.60;;
37973;SDS011;23796;51.458;7.000;2023-01-29T08:22:49;28.25;;;22.27;;
37973;SDS011;23796;51.458;7.000;2023-01-29T08:25:25;31.00;;;23.13;;
37973;SDS011;23796;51.458;7.000;2023-01-29T08:27:56;32.15;;;23.48;;
37973;SDS011;23796;51.458;7.000;2023-01-29T08:30:25;30.67;;;23.20;;
37973;SDS011;23796;51.458;7.000;2023-01-29T08:32:55;30.88;;;23.35;;
37973;SDS011;23796;51.458;7.000;2023-01-29T08:35:23;33.97;;;23.65;;
37973;SDS011;23796;51.458;7.000;2023-01-29T08:37:56;31.75;;;24.58;;
37973;SDS011;23796;51.458;7.000;2023-01-29T08:40:26;31.27;;;23.77;;
37973;SDS011;23796;51.458;7.000;2023-01-29T08:42:56;30.30;;;23.20;;
37973;SDS011;23796;51.458;7.000;2023-01-29T08:45:22;30.23;;;23.85;;
37973;SDS011;23796;51.458;7.000;2023-01-29T08:47:48;31.85;;;25.05;;
37973;SDS011;23796;51.458;7.000;2023-01-29T08:50:17;30.38;;;23.83;;
37973;SDS011;23796;51.458;7.000;2023-01-29T08:52:43;32.53;;;23.83;;
37973;SDS011;23796;51.458;7.000;2023-01-29T08:55:13;31.90;;;24.77;;
37973;SDS011;23796;51.458;7.000;2023-01-29T08:57:39;30.63;;;24.10;;
37973;SDS011;23796;51.458;7.000;2023-01-29T09:00:05;32.72;;;24.40;;
37973;SDS011;23796;51.458;7.000;2023-01-29T09:02:33;30.27;;;22.73;;
37973;SDS011;23796;51.458;7.000;2023-01-29T09:04:58;31.90;;;24.80;;
37973;SDS011;23796;51.458;7.000;2023-01-29T09:07:24;30.13;;;23.85;;
37973;SDS011;23796;51.458;7.000;2023-01-29T09:09:52;31.95;;;22.90;;
37973;SDS011;23796;51.458;7.000;2023-01-29T09:12:20;29.30;;;22.48;;
37973;SDS011;23796;51.458;7.000;2023-01-29T09:14:46;29.25;;;22.48;;
37973;SDS011;23796;51.458;7.000;2023-01-29T09:17:11;28.20;;;22.48;;
37973;SDS011;23796;51.458;7.000;2023-01-29T09:19:39;29.33;;;22.80;;
37973;SDS011;23796;51.458;7.000;2023-01-29T09:22:05;27.60;;;21.85;;
37973;SDS011;23796;51.458;7.000;2023-01-29T09:24:33;28.02;;;21.58;;
37973;SDS011;23796;51.458;7.000;2023-01-29T09:26:59;27.52;;;21.30;;
37973;SDS011;23796;51.458;7.000;2023-01-29T09:29:25;30.58;;;23.13;;
37973;SDS011;23796;51.458;7.000;2023-01-29T09:31:52;31.35;;;22.92;;
37973;SDS011;23796;51.458;7.000;2023-01-29T09:34:18;29.40;;;22.98;;
37973;SDS011;23796;51.458;7.000;2023-01-29T09:36:44;29.70;;;23.17;;
37973;SDS011;23796;51.458;7.000;2023-01-29T09:39:12;29.58;;;23.45;;
37973;SDS011;23796;51.458;7.000;2023-01-29T09:44:23;29.52;;;21.63;;
37973;SDS011;23796;51.458;7.000;2023-01-29T09:46:57;30.90;;;23.48;;
37973;SDS011;23796;51.458;7.000;2023-01-29T09:49:29;31.75;;;24.55;;
37973;SDS011;23796;51.458;7.000;2023-01-29T09:52:16;30.55;;;22.65;;
37973;SDS011;23796;51.458;7.000;2023-01-29T09:57:38;29.40;;;22.38;;
37973;SDS011;23796;51.458;7.000;2023-01-29T10:00:22;30.10;;;23.52;;
37973;SDS011;23796;51.458;7.000;2023-01-29T10:03:03;30.20;;;23.92;;
37973;SDS011;23796;51.458;7.000;2023-01-29T10:08:27;31.88;;;24.33;;
37973;SDS011;23796;51.458;7.000;2023-01-29T10:13:59;31.52;;;24.23;;
37973;SDS011;23796;51.458;7.000;2023-01-29T10:19:27;29.15;;;23.13;;
37973;SDS011;23796;51.458;7.000;2023-01-29T10:22:35;30.55;;;23.60;;
37973;SDS011;23796;51.458;7.000;2023-01-29T10:25:05;27.20;;;21.45;;
37973;SDS011;23796;51.458;7.000;2023-01-29T10:27:39;31.25;;;23.95;;
37973;SDS011;23796;51.458;7.000;2023-01-29T10:30:08;31.30;;;22.85;;
37973;SDS011;23796;51.458;7.000;2023-01-29T10:32:47;28.85;;;22.83;;
37973;SDS011;23796;51.458;7.000;2023-01-29T10:37:53;30.80;;;22.50;;
37973;SDS011;23796;51.458;7.000;2023-01-29T10:40:22;32.58;;;22.98;;
37973;SDS011;23796;51.458;7.000;2023-01-29T10:51:05;28.75;;;21.85;;
37973;SDS011;23796;51.458;7.000;2023-01-29T10:53:53;34.35;;;22.80;;
37973;SDS011;23796;51.458;7.000;2023-01-29T10:59:27;30.65;;;23.63;;
37973;SDS011;23796;51.458;7.000;2023-01-29T11:02:15;30.13;;;23.15;;
37973;SDS011;23796;51.458;7.000;2023-01-29T11:04:43;32.13;;;23.95;;
37973;SDS011;23796;51.458;7.000;2023-01-29T11:07:10;29.17;;;22.55;;
37973;SDS011;23796;51.458;7.000;2023-01-29T11:10:10;29.27;;;23.00;;
37973;SDS011;23796;51.458;7.000;2023-01-29T11:12:34;29.50;;;22.38;;
37973;SDS011;23796;51.458;7.000;2023-01-29T11:15:12;30.08;;;23.30;;
37973;SDS011;23796;51.458;7.000;2023-01-29T11:20:37;30.42;;;22.77;;
37973;SDS011;23796;51.458;7.000;2023-01-29T11:23:03;30.38;;;22.70;;
37973;SDS011;23796;51.458;7.000;2023-01-29T11:25:29;31.08;;;22.77;;
37973;SDS011;23796;51.458;7.000;2023-01-29T11:27:57;29.85;;;22.08;;
37973;SDS011;23796;51.458;7.000;2023-01-29T11:36:12;29.02;;;21.73;;
37973;SDS011;23796;51.458;7.000;2023-01-29T11:39:09;28.30;;;21.63;;
37973;SDS011;23796;51.458;7.000;2023-01-29T11:41:47;28.48;;;22.60;;
37973;SDS011;23796;51.458;7.000;2023-01-29T11:44:34;28.80;;;22.55;;
37973;SDS011;23796;51.458;7.000;2023-01-29T11:49:33;28.70;;;21.55;;
37973;SDS011;23796;51.458;7.000;2023-01-29T11:52:01;28.10;;;22.60;;
37973;SDS011;23796;51.458;7.000;2023-01-29T11:54:30;28.40;;;22.45;;
37973;SDS011;23796;51.458;7.000;2023-01-29T11:56:59;28.75;;;21.83;;
37973;SDS011;23796;51.458;7.000;2023-01-29T12:05:13;29.25;;;23.13;;
37973;SDS011;23796;51.458;7.000;2023-01-29T12:07:43;28.92;;;22.38;;
37973;SDS011;23796;51.458;7.000;2023-01-29T12:10:32;26.00;;;21.05;;
37973;SDS011;23796;51.458;7.000;2023-01-29T12:13:25;29.40;;;22.10;;
37973;SDS011;23796;51.458;7.000;2023-01-29T12:16:12;27.98;;;22.40;;
37973;SDS011;23796;51.458;7.000;2023-01-29T12:18:50;27.77;;;21.95;;
37973;SDS011;23796;51.458;7.000;2023-01-29T12:24:35;29.23;;;21.63;;
37973;SDS011;23796;51.458;7.000;2023-01-29T12:27:06;27.73;;;22.48;;
37973;SDS011;23796;51.458;7.000;2023-01-29T12:29:45;29.20;;;22.17;;
37973;SDS011;23796;51.458;7.000;2023-01-29T12:37:57;29.08;;;22.10;;
37973;SDS011;23796;51.458;7.000;2023-01-29T12:40:26;29.95;;;23.60;;
37973;SDS011;23796;51.458;7.000;2023-01-29T12:43:03;32.55;;;22.60;;
37973;SDS011;23796;51.458;7.000;2023-01-29T12:45:40;30.17;;;23.10;;
37973;SDS011;23796;51.458;7.000;2023-01-29T12:48:18;29.00;;;22.00;;
37973;SDS011;23796;51.458;7.000;2023-01-29T12:50:49;28.48;;;22.63;;
37973;SDS011;23796;51.458;7.000;2023-01-29T12:55:48;26.70;;;20.83;;
37973;SDS011;23796;51.458;7.000;2023-01-29T12:58:35;27.75;;;21.65;;
37973;SDS011;23796;51.458;7.000;2023-01-29T13:04:10;27.60;;;22.02;;
37973;SDS011;23796;51.458;7.000;2023-01-29T13:06:44;31.15;;;21.75;;
37973;SDS011;23796;51.458;7.000;2023-01-29T13:09:24;27.15;;;21.80;;
37973;SDS011;23796;51.458;7.000;2023-01-29T13:12:02;31.75;;;22.90;;
37973;SDS011;23796;51.458;7.000;2023-01-29T13:14:46;26.70;;;21.55;;
37973;SDS011;23796;51.458;7.000;2023-01-29T13:17:36;27.38;;;21.15;;
37973;SDS011;23796;51.458;7.000;2023-01-29T13:22:50;27.05;;;22.20;;
37973;SDS011;23796;51.458;7.000;2023-01-29T13:25:19;27.42;;;21.88;;
37973;SDS011;23796;51.458;7.000;2023-01-29T13:27:45;26.13;;;21.00;;
37973;SDS011;23796;51.458;7.000;2023-01-29T13:30:30;29.20;;;23.23;;
37973;SDS011;23796;51.458;7.000;2023-01-29T13:33:13;29.40;;;22.40;;
37973;SDS011;23796;51.458;7.000;2023-01-29T13:42:25;27.70;;;21.50;;
37973;SDS011;23796;51.458;7.000;2023-01-29T13:45:19;28.67;;;22.75;;
37973;SDS011;23796;51.458;7.000;2023-01-29T13:48:17;27.20;;;22.52;;
37973;SDS011;23796;51.458;7.000;2023-01-29T13:50:52;28.83;;;23.33;;
37973;SDS011;23796;51.458;7.000;2023-01-29T13:53:39;28.60;;;22.90;;
37973;SDS011;23796;51.458;7.000;2023-01-29T13:59:05;29.20;;;21.85;;
37973;SDS011;23796;51.458;7.000;2023-01-29T14:07:01;28.08;;;20.75;;
37973;SDS011;23796;51.458;7.000;2023-01-29T14:10:12;25.92;;;20.27;;
37973;SDS011;23796;51.458;7.000;2023-01-29T14:12:38;28.98;;;20.10;;
37973;SDS011;23796;51.458;7.000;2023-01-29T14:17:54;27.77;;;21.60;;
37973;SDS011;23796;51.458;7.000;2023-01-29T14:20:36;26.65;;;20.00;;
37973;SDS011;23796;51.458;7.000;2023-01-29T14:23:15;28.80;;;22.23;;
37973;SDS011;23796;51.458;7.000;2023-01-29T14:25:52;29.05;;;21.27;;
37973;SDS011;23796;51.458;7.000;2023-01-29T14:28:21;29.00;;;22.33;;
37973;SDS011;23796;51.458;7.000;2023-01-29T14:30:53;26.67;;;21.65;;
37973;SDS011;23796;51.458;7.000;2023-01-29T14:35:53;30.63;;;23.02;;
37973;SDS011;23796;51.458;7.000;2023-01-29T14:38:21;27.92;;;22.48;;
37973;SDS011;23796;51.458;7.000;2023-01-29T14:41:01;28.27;;;22.58;;
37973;SDS011;23796;51.458;7.000;2023-01-29T14:47:13;29.90;;;22.10;;
37973;SDS011;23796;51.458;7.000;2023-01-29T14:50:00;28.85;;;22.02;;
37973;SDS011;23796;51.458;7.000;2023-01-29T14:52:40;29.98;;;22.50;;
37973;SDS011;23796;51.458;7.000;2023-01-29T14:57:53;30.52;;;22.00;;
37973;SDS011;23796;51.458;7.000;2023-01-29T15:00:36;25.77;;;21.63;;
37973;SDS011;23796;51.458;7.000;2023-01-29T15:03:11;31.75;;;24.00;;
37973;SDS011;23796;51.458;7.000;2023-01-29T15:05:41;29.05;;;21.98;;
37973;SDS011;23796;51.458;7.000;2023-01-29T15:10:47;29.02;;;21.60;;
37973;SDS011;23796;51.458;7.000;2023-01-29T15:13:55;29.83;;;22.77;;
37973;SDS011;23796;51.458;7.000;2023-01-29T15:19:24;28.33;;;21.95;;
37973;SDS011;23796;51.458;7.000;2023-01-29T15:22:14;27.23;;;21.30;;
37973;SDS011;23796;51.458;7.000;2023-01-29T15:24:42;28.83;;;21.33;;
37973;SDS011;23796;51.458;7.000;2023-01-29T15:27:18;26.73;;;20.95;;
37973;SDS011;23796;51.458;7.000;2023-01-29T15:29:50;27.80;;;20.83;;
37973;SDS011;23796;51.458;7.000;2023-01-29T15:32:30;29.55;;;22.38;;
37973;SDS011;23796;51.458;7.000;2023-01-29T15:35:05;27.23;;;20.63;;
37973;SDS011;23796;51.458;7.000;2023-01-29T15:37:35;25.58;;;19.13;;
37973;SDS011;23796;51.458;7.000;2023-01-29T15:40:03;26.45;;;19.95;;
37973;SDS011;23796;51.458;7.000;2023-01-29T15:42:43;26.08;;;18.73;;
37973;SDS011;23796;51.458;7.000;2023-01-29T15:48:00;27.67;;;19.95;;
37973;SDS011;23796;51.458;7.000;2023-01-29T15:50:30;27.13;;;19.08;;
37973;SDS011;23796;51.458;7.000;2023-01-29T15:53:01;27.38;;;19.80;;
37973;SDS011;23796;51.458;7.000;2023-01-29T15:55:31;26.48;;;19.38;;
37973;SDS011;23796;51.458;7.000;2023-01-29T15:57:59;25.55;;;19.88;;
37973;SDS011;23796;51.458;7.000;2023-01-29T16:00:26;25.25;;;20.38;;
37973;SDS011;23796;51.458;7.000;2023-01-29T16:02:54;27.90;;;19.00;;
37973;SDS011;23796;51.458;7.000;2023-01-29T16:05:27;25.48;;;19.70;;
37973;SDS011;23796;51.458;7.000;2023-01-29T16:07:54;26.10;;;19.58;;
37973;SDS011;23796;51.458;7.000;2023-01-29T16:10:23;26.67;;;19.55;;
37973;SDS011;23796;51.458;7.000;2023-01-29T16:12:52;24.95;;;17.65;;
37973;SDS011;23796;51.458;7.000;2023-01-29T16:18:23;26.23;;;19.42;;
37973;SDS011;23796;51.458;7.000;2023-01-29T16:20:58;25.73;;;19.40;;
37973;SDS011;23796;51.458;7.000;2023-01-29T16:23:39;24.60;;;18.63;;
37973;SDS011;23796;51.458;7.000;2023-01-29T16:26:08;21.88;;;17.73;;
37973;SDS011;23796;51.458;7.000;2023-01-29T16:31:10;22.77;;;16.60;;
37973;SDS011;23796;51.458;7.000;2023-01-29T16:33:38;25.40;;;19.13;;
37973;SDS011;23796;51.458;7.000;2023-01-29T16:36:07;24.33;;;17.63;;
37973;SDS011;23796;51.458;7.000;2023-01-29T16:38:45;23.67;;;18.15;;
37973;SDS011;23796;51.458;7.000;2023-01-29T16:41:15;24.45;;;17.92;;
37973;SDS011;23796;51.458;7.000;2023-01-29T16:48:48;22.88;;;17.10;;
37973;SDS011;23796;51.458;7.000;2023-01-29T16:51:24;22.58;;;18.33;;
37973;SDS011;23796;51.458;7.000;2023-01-29T16:54:07;23.80;;;16.92;;
37973;SDS011;23796;51.458;7.000;2023-01-29T16:56:44;23.20;;;17.13;;
37973;SDS011;23796;51.458;7.000;2023-01-29T16:59:15;24.95;;;17.50;;
37973;SDS011;23796;51.458;7.000;2023-01-29T17:01:50;21.63;;;16.60;;
37973;SDS011;23796;51.458;7.000;2023-01-29T17:04:22;21.70;;;16.65;;
37973;SDS011;23796;51.458;7.000;2023-01-29T17:06:48;21.80;;;16.33;;
37973;SDS011;23796;51.458;7.000;2023-01-29T17:11:52;21.30;;;16.33;;
37973;SDS011;23796;51.458;7.000;2023-01-29T17:14:22;22.50;;;16.55;;
37973;SDS011;23796;51.458;7.000;2023-01-29T17:16:54;23.13;;;15.98;;
37973;SDS011;23796;51.458;7.000;2023-01-29T17:19:26;20.63;;;14.70;;
37973;SDS011;23796;51.458;7.000;2023-01-29T17:21:54;21.50;;;15.05;;
37973;SDS011;23796;51.458;7.000;2023-01-29T17:24:21;19.67;;;15.23;;
37973;SDS011;23796;51.458;7.000;2023-01-29T17:26:49;22.00;;;14.93;;
37973;SDS011;23796;51.458;7.000;2023-01-29T17:29:18;21.70;;;14.75;;
37973;SDS011;23796;51.458;7.000;2023-01-29T17:31:48;19.42;;;14.65;;
37973;SDS011;23796;51.458;7.000;2023-01-29T17:34:14;19.50;;;14.82;;
37973;SDS011;23796;51.458;7.000;2023-01-29T17:36:43;21.85;;;14.50;;
37973;SDS011;23796;51.458;7.000;2023-01-29T17:39:16;21.35;;;15.82;;
37973;SDS011;23796;51.458;7.000;2023-01-29T17:41:51;19.42;;;14.82;;
37973;SDS011;23796;51.458;7.000;2023-01-29T17:44:17;20.00;;;14.98;;